sensor_id;sensor_type;location;lat;lon;timestamp;P1;durP1;ratioP1;P2;durP2;ratioP2
42094;SDS011;27753;55.724;37.612;2023-01-05T00:02:27;0.75;;;0.52;;
42094;SDS011;27753;55.724;37.612;2023-01-05T00:04:53;1.77;;;1.17;;
42094;SDS011;27753;55.724;37.612;2023-01-05T00:07:19;1.60;;;0.90;;
42094;SDS011;27753;55.724;37.612;2023-01-05T00:09:45;1.45;;;1.35;;
42094;SDS011;27753;55.724;37.612;2023-01-05T00:12:10;0.77;;;0.75;;
42094;SDS011;27753;55.724;37.612;2023-01-05T00:14:54;1.10;;;0.98;;
42094;SDS011;27753;55.724;37.612;2023-01-05T00:17:39;1.85;;;1.02;;
42094;SDS011;27753;55.724;37.612;2023-01-05T00:20:23;0.80;;;0.80;;
42094;SDS011;27753;55.724;37.612;2023-01-05T00:23:07;1.20;;;1.10;;
42094;SDS011;27753;55.724;37.612;2023-01-05T00:25:37;1.20;;;0.95;;
42094;SDS011;27753;55.724;37.612;2023-01-05T00:28:06;2.70;;;1.75;;
42094;SDS011;27753;55.724;37.612;2023-01-05T00:30:33;0.63;;;0.63;;
42094;SDS011;27753;55.724;37.612;2023-01-05T00:33:10;1.58;;;1.10;;
42094;SDS011;27753;55.724;37.612;2023-01-05T00:35:38;2.33;;;1.17;;
42094;SDS011;27753;55.724;37.612;2023-01-05T00:38:04;1.67;;;1.23;;
42094;SDS011;27753;55.724;37.612;2023-01-05T00:40:31;3.43;;;0.83;;
42094;SDS011;27753;55.724;37.612;2023-01-05T00:45:24;4.47;;;1.33;;
42094;SDS011;27753;55.724;37.612;2023-01-05T00:47:50;2.03;;;1.10;;
42094;SDS011;27753;55.724;37.612;2023-01-05T00:50:18;2.45;;;1.30;;
42094;SDS011;27753;55.724;37.612;2023-01-05T00:52:45;1.90;;;1.17;;
42094;SDS011;27753;55.724;37.612;2023-01-05T00:55:11;2.13;;;1.50;;
42094;SDS011;27753;55.724;37.612;2023-01-05T00:57:38;2.25;;;1.75;;
42094;SDS011;27753;55.724;37.612;2023-01-05T01:00:04;3.40;;;2.15;;
42094;SDS011;27753;55.724;37.612;2023-01-05T01:02:32;4.07;;;2.97;;
42094;SDS011;27753;55.724;37.612;2023-01-05T01:05:01;3.63;;;2.72;;
42094;SDS011;27753;55.724;37.612;2023-01-05T01:07:27;4.10;;;3.25;;
42094;SDS011;27753;55.724;37.612;2023-01-05T01:09:53;5.03;;;2.75;;
42094;SDS011;27753;55.724;37.612;2023-01-05T01:12:18;7.20;;;3.92;;
42094;SDS011;27753;55.724;37.612;2023-01-05T01:14:47;3.58;;;2.63;;
42094;SDS011;27753;55.724;37.612;2023-01-05T01:17:14;4.35;;;3.75;;
42094;SDS011;27753;55.724;37.612;2023-01-05T01:19:43;4.75;;;3.35;;
42094;SDS011;27753;55.724;37.612;2023-01-05T01:22:10;7.13;;;3.25;;
42094;SDS011;27753;55.724;37.612;2023-01-05T01:24:37;6.55;;;3.58;;
42094;SDS011;27753;55.724;37.612;2023-01-05T01:27:02;5.10;;;3.20;;
42094;SDS011;27753;55.724;37.612;2023-01-05T01:29:29;5.30;;;3.17;;
42094;SDS011;27753;55.724;37.612;2023-01-05T01:31:58;7.30;;;3.92;;
42094;SDS011;27753;55.724;37.612;2023-01-05T01:34:23;6.30;;;4.55;;
42094;SDS011;27753;55.724;37.612;2023-01-05T01:36:55;4.95;;;3.30;;
42094;SDS011;27753;55.724;37.612;2023-01-05T01:39:21;4.85;;;3.75;;
42094;SDS011;27753;55.724;37.612;2023-01-05T01:41:47;5.03;;;3.92;;
42094;SDS011;27753;55.724;37.612;2023-01-05T01:50:17;6.75;;;3.88;;
42094;SDS011;27753;55.724;37.612;2023-01-05T01:52:44;5.97;;;3.58;;
42094;SDS011;27753;55.724;37.612;2023-01-05T01:55:12;5.72;;;3.53;;
42094;SDS011;27753;55.724;37.612;2023-01-05T01:57:39;4.93;;;3.47;;
42094;SDS011;27753;55.724;37.612;2023-01-05T02:00:07;6.45;;;4.35;;
42094;SDS011;27753;55.724;37.612;2023-01-05T02:05:01;7.10;;;3.97;;
42094;SDS011;27753;55.724;37.612;2023-01-05T02:07:36;8.13;;;4.45;;
42094;SDS011;27753;55.724;37.612;2023-01-05T02:10:04;6.03;;;3.92;;
42094;SDS011;27753;55.724;37.612;2023-01-05T02:12:35;10.70;;;3.80;;
42094;SDS011;27753;55.724;37.612;2023-01-05T02:20:46;6.78;;;4.45;;
42094;SDS011;27753;55.724;37.612;2023-01-05T02:27:19;7.13;;;4.55;;
42094;SDS011;27753;55.724;37.612;2023-01-05T02:32:15;6.93;;;4.05;;
42094;SDS011;27753;55.724;37.612;2023-01-05T03:07:17;4.43;;;3.00;;
42094;SDS011;27753;55.724;37.612;2023-01-05T03:22:19;6.15;;;3.75;;
42094;SDS011;27753;55.724;37.612;2023-01-05T03:28:34;7.60;;;3.20;;
42094;SDS011;27753;55.724;37.612;2023-01-05T03:31:38;7.57;;;3.28;;
42094;SDS011;27753;55.724;37.612;2023-01-05T03:41:02;6.35;;;3.70;;
42094;SDS011;27753;55.724;37.612;2023-01-05T03:55:41;5.72;;;3.70;;
42094;SDS011;27753;55.724;37.612;2023-01-05T03:58:26;5.57;;;3.40;;
42094;SDS011;27753;55.724;37.612;2023-01-05T04:06:58;6.47;;;3.70;;
42094;SDS011;27753;55.724;37.612;2023-01-05T04:42:39;6.85;;;3.83;;
42094;SDS011;27753;55.724;37.612;2023-01-05T04:48:26;5.97;;;3.88;;
42094;SDS011;27753;55.724;37.612;2023-01-05T04:56:59;5.13;;;3.40;;
42094;SDS011;27753;55.724;37.612;2023-01-05T04:59:44;6.45;;;3.95;;
42094;SDS011;27753;55.724;37.612;2023-01-05T05:51:02;5.40;;;3.30;;
42094;SDS011;27753;55.724;37.612;2023-01-05T06:02:38;4.95;;;3.47;;
42094;SDS011;27753;55.724;37.612;2023-01-05T06:11:28;10.70;;;4.97;;
42094;SDS011;27753;55.724;37.612;2023-01-05T06:37:43;8.05;;;4.10;;
42094;SDS011;27753;55.724;37.612;2023-01-05T06:49:36;7.95;;;4.78;;
42094;SDS011;27753;55.724;37.612;2023-01-05T06:52:21;6.57;;;4.78;;
42094;SDS011;27753;55.724;37.612;2023-01-05T06:57:50;8.98;;;5.55;;
42094;SDS011;27753;55.724;37.612;2023-01-05T07:03:37;10.75;;;5.03;;
42094;SDS011;27753;55.724;37.612;2023-01-05T07:09:25;13.80;;;6.70;;
42094;SDS011;27753;55.724;37.612;2023-01-05T07:30:18;9.68;;;4.90;;
42094;SDS011;27753;55.724;37.612;2023-01-05T07:48:00;7.57;;;4.50;;
42094;SDS011;27753;55.724;37.612;2023-01-05T08:02:57;7.63;;;4.80;;
42094;SDS011;27753;55.724;37.612;2023-01-05T08:11:50;10.88;;;5.63;;
42094;SDS011;27753;55.724;37.612;2023-01-05T08:14:15;9.57;;;4.97;;
42094;SDS011;27753;55.724;37.612;2023-01-05T08:32:18;9.48;;;5.25;;
42094;SDS011;27753;55.724;37.612;2023-01-05T08:46:37;8.85;;;5.65;;
42094;SDS011;27753;55.724;37.612;2023-01-05T08:49:22;9.40;;;4.85;;
42094;SDS011;27753;55.724;37.612;2023-01-05T08:52:06;8.27;;;4.93;;
42094;SDS011;27753;55.724;37.612;2023-01-05T09:06:35;10.48;;;6.40;;
42094;SDS011;27753;55.724;37.612;2023-01-05T09:18:31;10.05;;;6.13;;
42094;SDS011;27753;55.724;37.612;2023-01-05T09:21:16;8.02;;;4.75;;
42094;SDS011;27753;55.724;37.612;2023-01-05T09:23:43;8.60;;;5.10;;
42094;SDS011;27753;55.724;37.612;2023-01-05T09:26:10;11.20;;;5.78;;
42094;SDS011;27753;55.724;37.612;2023-01-05T09:53:09;12.70;;;7.18;;
42094;SDS011;27753;55.724;37.612;2023-01-05T09:55:56;10.40;;;6.43;;
42094;SDS011;27753;55.724;37.612;2023-01-05T10:10:55;6.05;;;4.57;;
42094;SDS011;27753;55.724;37.612;2023-01-05T10:19:48;12.55;;;6.57;;
42094;SDS011;27753;55.724;37.612;2023-01-05T10:34:48;7.28;;;5.05;;
42094;SDS011;27753;55.724;37.612;2023-01-05T11:01:42;8.50;;;6.00;;
42094;SDS011;27753;55.724;37.612;2023-01-05T11:13:23;10.10;;;4.97;;
42094;SDS011;27753;55.724;37.612;2023-01-05T11:16:10;10.27;;;4.65;;
42094;SDS011;27753;55.724;37.612;2023-01-05T11:22:02;8.55;;;4.22;;
42094;SDS011;27753;55.724;37.612;2023-01-05T11:45:24;12.00;;;5.50;;
42094;SDS011;27753;55.724;37.612;2023-01-05T12:35:19;11.70;;;5.97;;
42094;SDS011;27753;55.724;37.612;2023-01-05T12:55:54;10.32;;;6.10;;
42094;SDS011;27753;55.724;37.612;2023-01-05T13:00:53;8.32;;;4.43;;
42094;SDS011;27753;55.724;37.612;2023-01-05T13:03:26;15.38;;;6.68;;
42094;SDS011;27753;55.724;37.612;2023-01-05T13:06:11;13.32;;;5.90;;
42094;SDS011;27753;55.724;37.612;2023-01-05T13:08:44;13.65;;;5.85;;
42094;SDS011;27753;55.724;37.612;2023-01-05T13:16:36;10.60;;;6.22;;
42094;SDS011;27753;55.724;37.612;2023-01-05T13:19:08;13.20;;;4.97;;
42094;SDS011;27753;55.724;37.612;2023-01-05T13:21:44;11.10;;;4.70;;
42094;SDS011;27753;55.724;37.612;2023-01-05T13:24:30;8.93;;;6.72;;
42094;SDS011;27753;55.724;37.612;2023-01-05T13:27:30;12.23;;;6.57;;
42094;SDS011;27753;55.724;37.612;2023-01-05T13:29:56;11.77;;;6.03;;
42094;SDS011;27753;55.724;37.612;2023-01-05T13:51:57;11.65;;;6.35;;
42094;SDS011;27753;55.724;37.612;2023-01-05T13:56:59;6.63;;;4.80;;
42094;SDS011;27753;55.724;37.612;2023-01-05T14:02:21;11.18;;;7.15;;
42094;SDS011;27753;55.724;37.612;2023-01-05T14:04:51;12.10;;;5.25;;
42094;SDS011;27753;55.724;37.612;2023-01-05T14:07:17;7.07;;;4.97;;
42094;SDS011;27753;55.724;37.612;2023-01-05T14:09:44;12.33;;;6.73;;
42094;SDS011;27753;55.724;37.612;2023-01-05T14:20:31;8.88;;;4.50;;
42094;SDS011;27753;55.724;37.612;2023-01-05T14:23:02;10.82;;;6.40;;
42094;SDS011;27753;55.724;37.612;2023-01-05T14:25:54;9.10;;;5.35;;
42094;SDS011;27753;55.724;37.612;2023-01-05T14:33:52;15.32;;;7.13;;
42094;SDS011;27753;55.724;37.612;2023-01-05T14:39:29;6.82;;;4.53;;
42094;SDS011;27753;55.724;37.612;2023-01-05T14:42:07;8.07;;;6.07;;
42094;SDS011;27753;55.724;37.612;2023-01-05T14:47:15;10.70;;;5.63;;
42094;SDS011;27753;55.724;37.612;2023-01-05T14:49:56;10.27;;;4.97;;
42094;SDS011;27753;55.724;37.612;2023-01-05T14:55:39;12.15;;;5.90;;
42094;SDS011;27753;55.724;37.612;2023-01-05T14:58:46;8.30;;;5.65;;
42094;SDS011;27753;55.724;37.612;2023-01-05T15:01:41;5.72;;;4.45;;
42094;SDS011;27753;55.724;37.612;2023-01-05T15:04:20;8.43;;;6.32;;
42094;SDS011;27753;55.724;37.612;2023-01-05T15:21:18;8.98;;;5.65;;
42094;SDS011;27753;55.724;37.612;2023-01-05T15:27:22;6.20;;;4.45;;
42094;SDS011;27753;55.724;37.612;2023-01-05T15:32:39;11.48;;;6.20;;
42094;SDS011;27753;55.724;37.612;2023-01-05T15:35:16;11.90;;;6.15;;
42094;SDS011;27753;55.724;37.612;2023-01-05T15:37:52;13.60;;;5.70;;
42094;SDS011;27753;55.724;37.612;2023-01-05T15:42:46;7.38;;;5.63;;
42094;SDS011;27753;55.724;37.612;2023-01-05T15:45:29;9.55;;;6.78;;
42094;SDS011;27753;55.724;37.612;2023-01-05T15:48:06;12.77;;;6.57;;
42094;SDS011;27753;55.724;37.612;2023-01-05T15:50:50;13.93;;;6.82;;
42094;SDS011;27753;55.724;37.612;2023-01-05T15:53:25;21.35;;;10.93;;
42094;SDS011;27753;55.724;37.612;2023-01-05T15:55:57;9.98;;;6.75;;
42094;SDS011;27753;55.724;37.612;2023-01-05T15:58:28;10.07;;;6.13;;
42094;SDS011;27753;55.724;37.612;2023-01-05T16:01:06;11.68;;;6.90;;
42094;SDS011;27753;55.724;37.612;2023-01-05T16:03:43;8.32;;;5.18;;
42094;SDS011;27753;55.724;37.612;2023-01-05T16:06:21;12.25;;;6.38;;
42094;SDS011;27753;55.724;37.612;2023-01-05T16:08:51;9.20;;;6.05;;
42094;SDS011;27753;55.724;37.612;2023-01-05T16:11:25;11.43;;;6.78;;
42094;SDS011;27753;55.724;37.612;2023-01-05T16:14:05;8.90;;;5.45;;
42094;SDS011;27753;55.724;37.612;2023-01-05T16:16:36;12.15;;;5.68;;
42094;SDS011;27753;55.724;37.612;2023-01-05T16:19:21;11.02;;;5.32;;
42094;SDS011;27753;55.724;37.612;2023-01-05T16:22:05;15.32;;;5.93;;
42094;SDS011;27753;55.724;37.612;2023-01-05T16:24:43;11.60;;;6.90;;
42094;SDS011;27753;55.724;37.612;2023-01-05T16:27:40;13.88;;;5.82;;
42094;SDS011;27753;55.724;37.612;2023-01-05T16:30:12;13.20;;;7.22;;
42094;SDS011;27753;55.724;37.612;2023-01-05T16:48:48;11.45;;;5.75;;
42094;SDS011;27753;55.724;37.612;2023-01-05T16:51:19;8.65;;;5.28;;
42094;SDS011;27753;55.724;37.612;2023-01-05T16:54:04;11.45;;;7.18;;
42094;SDS011;27753;55.724;37.612;2023-01-05T16:57:04;15.93;;;6.88;;
42094;SDS011;27753;55.724;37.612;2023-01-05T16:59:53;13.40;;;6.38;;
42094;SDS011;27753;55.724;37.612;2023-01-05T17:02:27;13.85;;;7.30;;
42094;SDS011;27753;55.724;37.612;2023-01-05T17:05:06;12.32;;;7.70;;
42094;SDS011;27753;55.724;37.612;2023-01-05T17:07:33;12.43;;;8.43;;
42094;SDS011;27753;55.724;37.612;2023-01-05T17:10:04;13.48;;;6.75;;
42094;SDS011;27753;55.724;37.612;2023-01-05T17:12:32;14.93;;;7.90;;
42094;SDS011;27753;55.724;37.612;2023-01-05T17:14:59;15.27;;;9.27;;
42094;SDS011;27753;55.724;37.612;2023-01-05T17:17:29;12.32;;;9.02;;
42094;SDS011;27753;55.724;37.612;2023-01-05T17:19:55;16.13;;;8.98;;
42094;SDS011;27753;55.724;37.612;2023-01-05T17:22:20;11.55;;;6.35;;
42094;SDS011;27753;55.724;37.612;2023-01-05T17:24:46;14.65;;;6.13;;
42094;SDS011;27753;55.724;37.612;2023-01-05T17:27:13;8.63;;;5.00;;
42094;SDS011;27753;55.724;37.612;2023-01-05T17:29:38;10.68;;;5.90;;
42094;SDS011;27753;55.724;37.612;2023-01-05T17:32:04;13.43;;;7.25;;
42094;SDS011;27753;55.724;37.612;2023-01-05T17:34:30;12.18;;;8.13;;
42094;SDS011;27753;55.724;37.612;2023-01-05T17:36:57;15.65;;;9.13;;
42094;SDS011;27753;55.724;37.612;2023-01-05T17:39:25;15.18;;;7.55;;
42094;SDS011;27753;55.724;37.612;2023-01-05T17:41:50;12.80;;;6.70;;
42094;SDS011;27753;55.724;37.612;2023-01-05T17:44:19;12.35;;;6.80;;
42094;SDS011;27753;55.724;37.612;2023-01-05T17:46:46;14.88;;;6.95;;
42094;SDS011;27753;55.724;37.612;2023-01-05T17:49:16;13.70;;;7.00;;
42094;SDS011;27753;55.724;37.612;2023-01-05T17:51:44;10.90;;;6.88;;
42094;SDS011;27753;55.724;37.612;2023-01-05T17:54:10;11.73;;;6.22;;
42094;SDS011;27753;55.724;37.612;2023-01-05T17:56:36;12.57;;;7.38;;
42094;SDS011;27753;55.724;37.612;2023-01-05T17:59:02;11.18;;;7.22;;
42094;SDS011;27753;55.724;37.612;2023-01-05T18:01:29;16.55;;;10.50;;
42094;SDS011;27753;55.724;37.612;2023-01-05T18:03:57;18.48;;;7.82;;
42094;SDS011;27753;55.724;37.612;2023-01-05T18:06:23;13.97;;;8.23;;
42094;SDS011;27753;55.724;37.612;2023-01-05T18:08:50;18.08;;;10.88;;
42094;SDS011;27753;55.724;37.612;2023-01-05T18:11:16;17.98;;;8.75;;
42094;SDS011;27753;55.724;37.612;2023-01-05T18:13:42;17.95;;;9.10;;
42094;SDS011;27753;55.724;37.612;2023-01-05T18:16:08;19.45;;;10.88;;
42094;SDS011;27753;55.724;37.612;2023-01-05T18:18:35;17.08;;;8.80;;
42094;SDS011;27753;55.724;37.612;2023-01-05T18:21:02;21.03;;;9.97;;
42094;SDS011;27753;55.724;37.612;2023-01-05T18:23:29;13.00;;;7.78;;
42094;SDS011;27753;55.724;37.612;2023-01-05T18:25:55;21.98;;;11.27;;
42094;SDS011;27753;55.724;37.612;2023-01-05T18:28:26;14.73;;;7.82;;
42094;SDS011;27753;55.724;37.612;2023-01-05T18:30:52;12.50;;;7.47;;
42094;SDS011;27753;55.724;37.612;2023-01-05T18:33:21;16.48;;;10.50;;
42094;SDS011;27753;55.724;37.612;2023-01-05T18:35:47;16.45;;;8.02;;
42094;SDS011;27753;55.724;37.612;2023-01-05T18:38:13;12.25;;;7.43;;
42094;SDS011;27753;55.724;37.612;2023-01-05T18:40:39;14.80;;;8.65;;
42094;SDS011;27753;55.724;37.612;2023-01-05T18:43:05;16.80;;;9.30;;
42094;SDS011;27753;55.724;37.612;2023-01-05T18:45:31;16.92;;;10.60;;
42094;SDS011;27753;55.724;37.612;2023-01-05T18:47:57;18.52;;;8.98;;
42094;SDS011;27753;55.724;37.612;2023-01-05T18:50:23;15.25;;;7.55;;
42094;SDS011;27753;55.724;37.612;2023-01-05T18:52:53;16.63;;;10.10;;
42094;SDS011;27753;55.724;37.612;2023-01-05T18:55:31;16.00;;;7.50;;
42094;SDS011;27753;55.724;37.612;2023-01-05T18:58:03;16.90;;;10.60;;
42094;SDS011;27753;55.724;37.612;2023-01-05T19:00:31;16.00;;;8.18;;
42094;SDS011;27753;55.724;37.612;2023-01-05T19:02:57;22.00;;;12.35;;
42094;SDS011;27753;55.724;37.612;2023-01-05T19:05:24;25.55;;;11.02;;
42094;SDS011;27753;55.724;37.612;2023-01-05T19:07:53;17.95;;;10.77;;
42094;SDS011;27753;55.724;37.612;2023-01-05T19:10:19;18.67;;;8.93;;
42094;SDS011;27753;55.724;37.612;2023-01-05T19:12:46;17.77;;;10.45;;
42094;SDS011;27753;55.724;37.612;2023-01-05T19:15:12;17.48;;;11.20;;
42094;SDS011;27753;55.724;37.612;2023-01-05T19:17:38;15.30;;;9.45;;
42094;SDS011;27753;55.724;37.612;2023-01-05T19:20:07;26.70;;;12.50;;
42094;SDS011;27753;55.724;37.612;2023-01-05T19:22:33;27.00;;;11.10;;
42094;SDS011;27753;55.724;37.612;2023-01-05T19:24:59;16.48;;;10.32;;
42094;SDS011;27753;55.724;37.612;2023-01-05T19:27:28;14.33;;;7.43;;
42094;SDS011;27753;55.724;37.612;2023-01-05T19:29:57;20.42;;;8.88;;
42094;SDS011;27753;55.724;37.612;2023-01-05T19:32:22;16.92;;;10.98;;
42094;SDS011;27753;55.724;37.612;2023-01-05T19:34:48;18.90;;;10.35;;
42094;SDS011;27753;55.724;37.612;2023-01-05T19:37:14;18.95;;;9.57;;
42094;SDS011;27753;55.724;37.612;2023-01-05T19:39:40;22.38;;;10.35;;
42094;SDS011;27753;55.724;37.612;2023-01-05T19:42:06;19.75;;;10.25;;
42094;SDS011;27753;55.724;37.612;2023-01-05T19:44:32;17.92;;;9.38;;
42094;SDS011;27753;55.724;37.612;2023-01-05T19:46:57;19.40;;;9.25;;
42094;SDS011;27753;55.724;37.612;2023-01-05T19:49:27;28.60;;;11.88;;
42094;SDS011;27753;55.724;37.612;2023-01-05T19:51:53;26.88;;;13.85;;
42094;SDS011;27753;55.724;37.612;2023-01-05T19:54:22;17.33;;;9.45;;
42094;SDS011;27753;55.724;37.612;2023-01-05T19:56:51;15.77;;;9.93;;
42094;SDS011;27753;55.724;37.612;2023-01-05T20:01:53;17.30;;;10.35;;
42094;SDS011;27753;55.724;37.612;2023-01-05T20:04:20;20.58;;;9.65;;
42094;SDS011;27753;55.724;37.612;2023-01-05T20:06:46;20.58;;;10.52;;
42094;SDS011;27753;55.724;37.612;2023-01-05T20:09:15;21.08;;;10.82;;
42094;SDS011;27753;55.724;37.612;2023-01-05T20:11:46;14.15;;;7.70;;
42094;SDS011;27753;55.724;37.612;2023-01-05T20:16:40;21.00;;;10.73;;
42094;SDS011;27753;55.724;37.612;2023-01-05T20:19:07;14.75;;;10.57;;
42094;SDS011;27753;55.724;37.612;2023-01-05T20:21:33;16.27;;;7.47;;
42094;SDS011;27753;55.724;37.612;2023-01-05T20:24:00;13.77;;;8.27;;
42094;SDS011;27753;55.724;37.612;2023-01-05T20:26:27;14.57;;;9.27;;
42094;SDS011;27753;55.724;37.612;2023-01-05T20:28:55;19.15;;;9.63;;
42094;SDS011;27753;55.724;37.612;2023-01-05T20:31:25;17.13;;;7.35;;
42094;SDS011;27753;55.724;37.612;2023-01-05T20:33:55;14.40;;;8.30;;
42094;SDS011;27753;55.724;37.612;2023-01-05T20:36:23;21.25;;;7.40;;
42094;SDS011;27753;55.724;37.612;2023-01-05T20:38:50;15.48;;;8.65;;
42094;SDS011;27753;55.724;37.612;2023-01-05T20:43:45;16.20;;;9.30;;
42094;SDS011;27753;55.724;37.612;2023-01-05T20:46:13;11.40;;;6.10;;
42094;SDS011;27753;55.724;37.612;2023-01-05T20:49:05;13.98;;;7.50;;
42094;SDS011;27753;55.724;37.612;2023-01-05T20:51:40;14.02;;;5.97;;
42094;SDS011;27753;55.724;37.612;2023-01-05T20:54:07;18.17;;;9.23;;
42094;SDS011;27753;55.724;37.612;2023-01-05T20:56:34;20.15;;;7.43;;
42094;SDS011;27753;55.724;37.612;2023-01-05T20:59:10;18.23;;;9.93;;
42094;SDS011;27753;55.724;37.612;2023-01-05T21:01:40;13.52;;;8.07;;
42094;SDS011;27753;55.724;37.612;2023-01-05T21:04:08;11.95;;;8.52;;
42094;SDS011;27753;55.724;37.612;2023-01-05T21:06:34;14.60;;;6.50;;
42094;SDS011;27753;55.724;37.612;2023-01-05T21:09:00;17.38;;;8.43;;
42094;SDS011;27753;55.724;37.612;2023-01-05T21:11:27;13.45;;;6.75;;
42094;SDS011;27753;55.724;37.612;2023-01-05T21:13:54;16.10;;;7.35;;
42094;SDS011;27753;55.724;37.612;2023-01-05T21:16:33;14.10;;;7.85;;
42094;SDS011;27753;55.724;37.612;2023-01-05T21:19:20;19.17;;;9.43;;
42094;SDS011;27753;55.724;37.612;2023-01-05T21:21:48;7.43;;;5.00;;
42094;SDS011;27753;55.724;37.612;2023-01-05T21:24:18;10.57;;;5.45;;
42094;SDS011;27753;55.724;37.612;2023-01-05T21:26:48;15.77;;;7.07;;
42094;SDS011;27753;55.724;37.612;2023-01-05T21:29:14;12.95;;;7.82;;
42094;SDS011;27753;55.724;37.612;2023-01-05T21:31:43;13.07;;;6.38;;
42094;SDS011;27753;55.724;37.612;2023-01-05T21:34:09;16.47;;;5.47;;
42094;SDS011;27753;55.724;37.612;2023-01-05T21:36:36;9.90;;;4.88;;
42094;SDS011;27753;55.724;37.612;2023-01-05T21:39:05;14.10;;;7.43;;
42094;SDS011;27753;55.724;37.612;2023-01-05T21:41:33;8.57;;;6.18;;
42094;SDS011;27753;55.724;37.612;2023-01-05T21:44:19;7.38;;;3.60;;
42094;SDS011;27753;55.724;37.612;2023-01-05T21:46:46;11.07;;;6.57;;
42094;SDS011;27753;55.724;37.612;2023-01-05T21:49:15;15.65;;;6.38;;
42094;SDS011;27753;55.724;37.612;2023-01-05T21:51:42;15.90;;;5.72;;
42094;SDS011;27753;55.724;37.612;2023-01-05T21:54:27;24.48;;;6.05;;
42094;SDS011;27753;55.724;37.612;2023-01-05T21:57:11;13.45;;;7.47;;
42094;SDS011;27753;55.724;37.612;2023-01-05T21:59:37;9.02;;;6.63;;
42094;SDS011;27753;55.724;37.612;2023-01-05T22:02:03;15.82;;;7.72;;
42094;SDS011;27753;55.724;37.612;2023-01-05T22:04:30;15.13;;;5.82;;
42094;SDS011;27753;55.724;37.612;2023-01-05T22:06:56;11.07;;;5.07;;
42094;SDS011;27753;55.724;37.612;2023-01-05T22:09:22;16.45;;;5.57;;
42094;SDS011;27753;55.724;37.612;2023-01-05T22:11:48;10.90;;;5.93;;
42094;SDS011;27753;55.724;37.612;2023-01-05T22:14:14;13.30;;;6.63;;
42094;SDS011;27753;55.724;37.612;2023-01-05T22:16:40;13.77;;;7.80;;
42094;SDS011;27753;55.724;37.612;2023-01-05T22:19:06;12.25;;;5.47;;
42094;SDS011;27753;55.724;37.612;2023-01-05T22:21:32;11.75;;;6.03;;
42094;SDS011;27753;55.724;37.612;2023-01-05T22:23:58;12.80;;;6.40;;
42094;SDS011;27753;55.724;37.612;2023-01-05T22:26:24;12.57;;;5.67;;
42094;SDS011;27753;55.724;37.612;2023-01-05T22:28:50;8.83;;;4.30;;
42094;SDS011;27753;55.724;37.612;2023-01-05T22:31:24;11.60;;;5.45;;
42094;SDS011;27753;55.724;37.612;2023-01-05T22:33:53;7.68;;;4.53;;
42094;SDS011;27753;55.724;37.612;2023-01-05T22:36:22;7.90;;;5.05;;
42094;SDS011;27753;55.724;37.612;2023-01-05T22:38:49;8.82;;;6.55;;
42094;SDS011;27753;55.724;37.612;2023-01-05T22:41:18;9.77;;;4.72;;
42094;SDS011;27753;55.724;37.612;2023-01-05T22:43:45;12.20;;;5.40;;
42094;SDS011;27753;55.724;37.612;2023-01-05T22:46:13;9.82;;;5.03;;
42094;SDS011;27753;55.724;37.612;2023-01-05T22:48:41;11.00;;;5.35;;
42094;SDS011;27753;55.724;37.612;2023-01-05T22:51:09;7.45;;;4.57;;
42094;SDS011;27753;55.724;37.612;2023-01-05T22:53:58;7.45;;;4.60;;
42094;SDS011;27753;55.724;37.612;2023-01-05T22:56:25;6.63;;;3.05;;
42094;SDS011;27753;55.724;37.612;2023-01-05T22:58:53;8.20;;;4.65;;
42094;SDS011;27753;55.724;37.612;2023-01-05T23:01:24;7.20;;;4.57;;
42094;SDS011;27753;55.724;37.612;2023-01-05T23:04:29;12.98;;;7.50;;
42094;SDS011;27753;55.724;37.612;2023-01-05T23:06:55;6.88;;;4.55;;
42094;SDS011;27753;55.724;37.612;2023-01-05T23:09:21;11.20;;;5.57;;
42094;SDS011;27753;55.724;37.612;2023-01-05T23:11:47;9.33;;;4.53;;
42094;SDS011;27753;55.724;37.612;2023-01-05T23:14:13;10.17;;;4.87;;
42094;SDS011;27753;55.724;37.612;2023-01-05T23:16:42;10.15;;;5.68;;
42094;SDS011;27753;55.724;37.612;2023-01-05T23:19:08;9.83;;;5.73;;
42094;SDS011;27753;55.724;37.612;2023-01-05T23:21:36;6.18;;;4.43;;
42094;SDS011;27753;55.724;37.612;2023-01-05T23:24:02;10.45;;;4.70;;
42094;SDS011;27753;55.724;37.612;2023-01-05T23:26:29;8.20;;;4.70;;
42094;SDS011;27753;55.724;37.612;2023-01-05T23:28:55;13.00;;;4.03;;
42094;SDS011;27753;55.724;37.612;2023-01-05T23:31:21;9.20;;;4.25;;
42094;SDS011;27753;55.724;37.612;2023-01-05T23:33:47;6.50;;;3.80;;
42094;SDS011;27753;55.724;37.612;2023-01-05T23:36:14;15.98;;;5.00;;
42094;SDS011;27753;55.724;37.612;2023-01-05T23:38:42;8.15;;;4.28;;
42094;SDS011;27753;55.724;37.612;2023-01-05T23:41:09;11.82;;;6.28;;
42094;SDS011;27753;55.724;37.612;2023-01-05T23:43:38;6.65;;;4.05;;
42094;SDS011;27753;55.724;37.612;2023-01-05T23:46:09;6.80;;;4.60;;
42094;SDS011;27753;55.724;37.612;2023-01-05T23:48:37;6.47;;;2.85;;
42094;SDS011;27753;55.724;37.612;2023-01-05T23:51:04;4.95;;;3.03;;
42094;SDS011;27753;55.724;37.612;2023-01-05T23:53:35;8.98;;;3.75;;
42094;SDS011;27753;55.724;37.612;2023-01-05T23:56:08;4.13;;;2.83;;
42094;SDS011;27753;55.724;37.612;2023-01-05T23:58:36;9.18;;;5.05;;
